Time;durP1;ratioP1;P1;durP2;ratioP2;P2;SDS_P1;SDS_P2;PMS_P1;PMS_P2;Temp;Humidity;BMP_temperature;BMP_pressure;BME280_temperature;BME280_humidity;BME280_pressure;Samples;Min_cycle;Max_cycle;Signal;HPM_P1;HPM_P2
2021/12/21 00:02:22;;;;;;;;;;;6.80;99.90;;;;;;5052524;28;19947;-87
2021/12/21 00:04:50;;;;;;;;;;;6.70;99.90;;;;;;5052016;28;20374;-88
2021/12/21 00:07:18;;;;;;;;;;;6.70;99.90;;;;;;5058117;28;19933;-87
2021/12/21 00:09:47;;;;;;;;;;;6.70;99.90;;;;;;5034496;28;19929;-88
2021/12/21 00:12:18;;;;;;;;;;;6.60;99.90;;;;;;5055106;28;19925;-88
2021/12/21 00:15:18;;;;;;;;;;;6.60;99.90;;;;;;5046418;28;19932;-88
2021/12/21 00:18:04;;;;;;;;;;;6.70;99.90;;;;;;5016757;28;19932;-88
2021/12/21 00:23:30;;;;;;;;;;;7.60;99.90;;;;;;5045371;28;19925;-88
2021/12/21 00:26:01;;;;;;;;;;;5.10;99.90;;;;;;5010564;28;19936;-89
2021/12/21 00:28:35;;;;;;;;;;;6.60;99.90;;;;;;5028134;28;20372;-89
2021/12/21 00:31:06;;;;;;;;;;;7.00;99.90;;;;;;5029784;28;19932;-88
2021/12/21 00:33:39;;;;;;;;;;;6.60;99.90;;;;;;5039344;28;19929;-87
2021/12/21 00:36:10;;;;;;;;;;;6.60;99.90;;;;;;5029617;28;19925;-88
2021/12/21 00:38:38;;;;;;;;;;;6.70;99.90;;;;;;5046967;28;20154;-89
2021/12/21 00:41:21;;;;;;;;;;;6.70;99.90;;;;;;5029647;28;19940;-88
2021/12/21 00:43:54;;;;;;;;;;;6.70;99.90;;;;;;5033148;28;20415;-87
2021/12/21 00:46:40;;;;;;;;;;;6.80;99.90;;;;;;5050588;28;19935;-87
2021/12/21 00:49:23;;;;;;;;;;;6.70;99.90;;;;;;5029070;28;19929;-88
2021/12/21 00:51:51;;;;;;;;;;;6.70;99.90;;;;;;5026652;28;20206;-87
2021/12/21 00:54:21;;;;;;;;;;;6.70;99.90;;;;;;5015510;28;19935;-87
2021/12/21 00:57:04;;;;;;;;;;;6.70;99.90;;;;;;5028178;28;19936;-87
2021/12/21 00:59:32;;;;;;;;;;;6.70;99.90;;;;;;5013153;28;19929;-88
2021/12/21 01:02:02;;;;;;;;;;;7.80;99.90;;;;;;5009971;28;19925;-89
2021/12/21 01:04:38;;;;;;;;;;;6.70;99.90;;;;;;5043592;28;19936;-89
2021/12/21 01:12:52;;;;;;;;;;;6.80;99.90;;;;;;5066382;28;19925;-89
2021/12/21 01:16:01;;;;;;;;;;;6.70;99.90;;;;;;5039941;28;19935;-88
2021/12/21 01:18:19;;;;;;;;;;;6.70;99.90;;;;;;5035573;28;19935;-88
2021/12/21 01:21:05;;;;;;;;;;;6.70;99.90;;;;;;5023862;28;19920;-88
2021/12/21 01:23:58;;;;;;;;;;;6.70;99.90;;;;;;5039092;28;19932;-87
2021/12/21 01:29:10;;;;;;;;;;;6.50;99.90;;;;;;5069099;28;19925;-87
2021/12/21 01:32:07;;;;;;;;;;;6.70;99.90;;;;;;5034187;28;19931;-87
2021/12/21 01:34:58;;;;;;;;;;;6.60;99.90;;;;;;5039889;28;19939;-88
2021/12/21 01:37:41;;;;;;;;;;;8.10;99.90;;;;;;5011507;28;19929;-87
2021/12/21 01:43:12;;;;;;;;;;;6.70;99.90;;;;;;5025797;28;19932;-88
2021/12/21 01:51:24;;;;;;;;;;;6.70;99.90;;;;;;5043504;28;19925;-87
2021/12/21 01:53:56;;;;;;;;;;;6.80;99.90;;;;;;5029489;28;19926;-88
2021/12/21 01:56:25;;;;;;;;;;;6.60;99.90;;;;;;5037488;28;19925;-87
2021/12/21 01:58:53;;;;;;;;;;;5.60;99.90;;;;;;5040494;28;19926;-87
2021/12/21 02:01:27;;;;;;;;;;;6.60;99.90;;;;;;5038028;28;19925;-87
2021/12/21 02:03:58;;;;;;;;;;;6.60;99.90;;;;;;5016571;28;19909;-88
2021/12/21 02:06:29;;;;;;;;;;;6.50;99.90;;;;;;5039052;28;19925;-87
2021/12/21 02:08:57;;;;;;;;;;;6.50;99.90;;;;;;5013807;28;19926;-87
2021/12/21 02:11:26;;;;;;;;;;;6.50;99.90;;;;;;5010598;28;19925;-87
2021/12/21 02:13:57;;;;;;;;;;;6.50;99.90;;;;;;5030907;28;20291;-88
2021/12/21 02:17:02;;;;;;;;;;;6.50;99.90;;;;;;5021530;28;20389;-89
2021/12/21 02:19:37;;;;;;;;;;;6.50;99.90;;;;;;5026440;28;19947;-88
2021/12/21 02:22:24;;;;;;;;;;;6.50;99.90;;;;;;5043451;28;19920;-88
2021/12/21 02:27:54;;;;;;;;;;;6.50;99.90;;;;;;5012864;28;19948;-88
2021/12/21 02:30:45;;;;;;;;;;;6.50;99.90;;;;;;5037406;28;19939;-88
2021/12/21 02:33:14;;;;;;;;;;;6.50;99.90;;;;;;5014527;28;19932;-89
2021/12/21 02:35:44;;;;;;;;;;;6.50;99.90;;;;;;5043439;28;19925;-87
2021/12/21 02:38:15;;;;;;;;;;;4.90;99.90;;;;;;5042925;28;19926;-88
2021/12/21 02:40:45;;;;;;;;;;;6.50;99.90;;;;;;5036395;28;19925;-88
2021/12/21 02:43:13;;;;;;;;;;;6.50;99.90;;;;;;5026829;28;19925;-89
2021/12/21 02:45:42;;;;;;;;;;;6.70;99.90;;;;;;5012049;28;19925;-88
2021/12/21 02:48:17;;;;;;;;;;;6.60;99.90;;;;;;5039929;28;19931;-87
2021/12/21 02:50:50;;;;;;;;;;;6.50;99.90;;;;;;5016484;28;19925;-88
2021/12/21 02:53:34;;;;;;;;;;;6.50;99.90;;;;;;5053876;28;19936;-88
2021/12/21 02:56:16;;;;;;;;;;;6.50;99.90;;;;;;5037242;28;19925;-88
2021/12/21 02:58:59;;;;;;;;;;;6.50;99.90;;;;;;5020309;28;19931;-87
2021/12/21 03:01:39;;;;;;;;;;;6.40;99.90;;;;;;5054523;28;19925;-87
2021/12/21 03:04:23;;;;;;;;;;;6.30;99.90;;;;;;5021921;28;19935;-87
2021/12/21 03:09:59;;;;;;;;;;;6.70;99.90;;;;;;5052388;28;20201;-87
2021/12/21 03:15:35;;;;;;;;;;;6.40;99.90;;;;;;4999334;28;19925;-86
2021/12/21 03:18:19;;;;;;;;;;;6.40;99.90;;;;;;5060729;28;19936;-89
2021/12/21 03:21:04;;;;;;;;;;;6.40;99.90;;;;;;5022379;28;19931;-88
2021/12/21 03:23:42;;;;;;;;;;;6.40;99.90;;;;;;5048468;28;19913;-89
2021/12/21 03:26:25;;;;;;;;;;;6.50;99.90;;;;;;5031054;28;19939;-89
2021/12/21 03:29:10;;;;;;;;;;;6.50;99.90;;;;;;5034592;28;19925;-89
2021/12/21 03:31:47;;;;;;;;;;;6.40;99.90;;;;;;5034569;28;19913;-89
2021/12/21 03:34:30;;;;;;;;;;;5.60;99.90;;;;;;5036347;28;19925;-88
2021/12/21 03:37:14;;;;;;;;;;;6.50;99.90;;;;;;5021428;28;19929;-89
2021/12/21 03:39:56;;;;;;;;;;;6.50;99.90;;;;;;5049548;28;19932;-89
2021/12/21 03:42:41;;;;;;;;;;;6.40;99.90;;;;;;5071251;28;19925;-89
2021/12/21 03:45:24;;;;;;;;;;;6.40;99.90;;;;;;5022577;28;20284;-88
2021/12/21 03:48:06;;;;;;;;;;;6.40;99.90;;;;;;5035609;28;19932;-88
2021/12/21 03:50:47;;;;;;;;;;;6.40;99.90;;;;;;5037031;28;19925;-89
2021/12/21 03:53:30;;;;;;;;;;;6.40;99.90;;;;;;5039004;28;19925;-89
2021/12/21 03:58:59;;;;;;;;;;;6.50;99.90;;;;;;5002953;28;19925;-89
2021/12/21 04:01:42;;;;;;;;;;;6.40;99.90;;;;;;5021149;28;19928;-88
2021/12/21 04:04:19;;;;;;;;;;;6.40;99.90;;;;;;5055021;28;19931;-88
2021/12/21 04:06:51;;;;;;;;;;;6.10;99.90;;;;;;5041400;28;19924;-90
2021/12/21 04:09:36;;;;;;;;;;;4.60;99.90;;;;;;5071873;28;19925;-88
2021/12/21 04:12:18;;;;;;;;;;;6.30;99.90;;;;;;5054591;28;19925;-89
2021/12/21 04:15:02;;;;;;;;;;;6.30;99.90;;;;;;5054094;28;19935;-89
2021/12/21 04:17:32;;;;;;;;;;;6.30;99.90;;;;;;5039858;28;19924;-88
2021/12/21 04:20:15;;;;;;;;;;;6.10;99.90;;;;;;5046141;28;19944;-87
2021/12/21 04:22:49;;;;;;;;;;;6.30;99.90;;;;;;5037513;28;19925;-88
2021/12/21 04:25:31;;;;;;;;;;;6.20;99.90;;;;;;5053287;28;19929;-88
2021/12/21 04:28:03;;;;;;;;;;;6.30;99.90;;;;;;5053490;28;19929;-88
2021/12/21 04:30:49;;;;;;;;;;;6.40;99.90;;;;;;5030522;28;19925;-88
2021/12/21 04:33:34;;;;;;;;;;;6.30;99.90;;;;;;5000856;28;19940;-88
2021/12/21 04:36:17;;;;;;;;;;;6.30;99.90;;;;;;5015540;28;19925;-88
2021/12/21 04:39:02;;;;;;;;;;;6.30;99.90;;;;;;5016236;28;20010;-87
2021/12/21 04:41:44;;;;;;;;;;;6.30;99.90;;;;;;5037373;28;19925;-88
2021/12/21 04:44:29;;;;;;;;;;;6.30;99.90;;;;;;5021120;28;19925;-86
2021/12/21 04:47:10;;;;;;;;;;;6.40;99.90;;;;;;5039774;28;20386;-87
2021/12/21 04:49:54;;;;;;;;;;;6.60;99.90;;;;;;5042409;28;19924;-87
2021/12/21 04:52:39;;;;;;;;;;;6.30;99.90;;;;;;5066496;28;19924;-88
2021/12/21 04:55:07;;;;;;;;;;;6.30;99.90;;;;;;5038684;28;19925;-89
2021/12/21 04:57:50;;;;;;;;;;;6.30;99.90;;;;;;5020508;28;19933;-88
2021/12/21 05:00:32;;;;;;;;;;;6.20;99.90;;;;;;5020631;28;19925;-87
2021/12/21 05:03:14;;;;;;;;;;;6.30;99.90;;;;;;5038014;28;19929;-88
2021/12/21 05:05:56;;;;;;;;;;;6.30;99.90;;;;;;5051576;28;19924;-88
2021/12/21 05:08:39;;;;;;;;;;;6.30;99.90;;;;;;5049859;28;19935;-89
2021/12/21 05:11:21;;;;;;;;;;;6.30;99.90;;;;;;5049972;28;19928;-87
2021/12/21 05:14:06;;;;;;;;;;;4.70;99.90;;;;;;5032393;28;19931;-87
2021/12/21 05:16:37;;;;;;;;;;;6.30;99.90;;;;;;5032699;28;19932;-86
2021/12/21 05:19:05;;;;;;;;;;;6.30;99.90;;;;;;5063368;28;19931;-88
2021/12/21 05:21:49;;;;;;;;;;;6.30;99.90;;;;;;5051169;28;19927;-88
2021/12/21 05:24:33;;;;;;;;;;;6.30;99.90;;;;;;5036772;28;19929;-89
2021/12/21 05:27:15;;;;;;;;;;;6.50;99.90;;;;;;5051656;28;19921;-88
2021/12/21 05:29:45;;;;;;;;;;;6.20;99.90;;;;;;5018790;28;19925;-88
2021/12/21 05:32:31;;;;;;;;;;;5.90;99.90;;;;;;5019214;28;19929;-88
2021/12/21 05:35:17;;;;;;;;;;;6.30;99.90;;;;;;5064889;28;19939;-88
2021/12/21 05:38:06;;;;;;;;;;;6.40;99.90;;;;;;5051399;28;19932;-88
2021/12/21 05:40:50;;;;;;;;;;;5.90;99.90;;;;;;5048998;28;19925;-88
2021/12/21 05:43:34;;;;;;;;;;;6.20;99.90;;;;;;5031759;28;19925;-88
2021/12/21 05:46:17;;;;;;;;;;;6.20;99.90;;;;;;5012601;28;19931;-89
2021/12/21 05:48:58;;;;;;;;;;;6.20;99.90;;;;;;5014165;28;19935;-89
2021/12/21 05:51:39;;;;;;;;;;;6.20;99.90;;;;;;5051162;28;19939;-90
2021/12/21 05:54:24;;;;;;;;;;;6.20;99.90;;;;;;5049807;28;19925;-88
2021/12/21 05:56:59;;;;;;;;;;;6.20;99.90;;;;;;5043709;28;19925;-89
2021/12/21 05:59:29;;;;;;;;;;;6.20;99.90;;;;;;5067461;28;19939;-88
2021/12/21 06:02:00;;;;;;;;;;;6.20;99.90;;;;;;5054803;28;19948;-90
2021/12/21 06:04:41;;;;;;;;;;;6.80;99.90;;;;;;5023786;28;19929;-88
2021/12/21 06:07:25;;;;;;;;;;;6.20;99.90;;;;;;5032826;28;19925;-90
2021/12/21 06:10:14;;;;;;;;;;;6.20;99.90;;;;;;5036531;28;20216;-89
2021/12/21 06:26:58;;;;;;;;;;;6.20;99.90;;;;;;5033321;28;19925;-87
2021/12/21 06:29:26;;;;;;;;;;;6.20;99.90;;;;;;5035433;28;19925;-88
2021/12/21 06:32:08;;;;;;;;;;;6.30;99.90;;;;;;5051747;28;19926;-87
2021/12/21 06:34:53;;;;;;;;;;;6.20;99.90;;;;;;5034511;28;19936;-88
2021/12/21 06:37:51;;;;;;;;;;;6.20;99.90;;;;;;5026674;28;20300;-87
2021/12/21 06:40:33;;;;;;;;;;;6.20;99.90;;;;;;5021548;28;19931;-89
2021/12/21 06:43:16;;;;;;;;;;;6.20;99.90;;;;;;5034411;28;19936;-89
2021/12/21 06:51:54;;;;;;;;;;;6.20;99.90;;;;;;5045371;28;19928;-87
2021/12/21 06:54:37;;;;;;;;;;;6.20;99.90;;;;;;5056421;28;19924;-87
2021/12/21 06:57:19;;;;;;;;;;;6.20;99.90;;;;;;5052933;28;19931;-86
2021/12/21 07:00:02;;;;;;;;;;;6.20;99.90;;;;;;5052377;28;19913;-87
2021/12/21 07:02:47;;;;;;;;;;;6.20;99.90;;;;;;5046713;28;19933;-87
2021/12/21 07:05:31;;;;;;;;;;;6.30;99.90;;;;;;5034023;28;19929;-88
2021/12/21 07:08:16;;;;;;;;;;;6.30;99.90;;;;;;5050806;28;19929;-88
2021/12/21 07:11:17;;;;;;;;;;;6.40;99.90;;;;;;5033028;28;19951;-86
2021/12/21 07:20:01;;;;;;;;;;;6.30;99.90;;;;;;5062475;28;19920;-89
2021/12/21 07:22:47;;;;;;;;;;;6.30;99.90;;;;;;5032386;28;19920;-88
2021/12/21 07:25:30;;;;;;;;;;;6.20;99.90;;;;;;5001273;28;20291;-88
2021/12/21 07:28:10;;;;;;;;;;;6.20;99.90;;;;;;5019203;28;19925;-88
2021/12/21 07:30:52;;;;;;;;;;;6.30;99.90;;;;;;5051432;28;19925;-89
2021/12/21 07:33:34;;;;;;;;;;;6.20;99.90;;;;;;5014955;28;19930;-89
2021/12/21 07:36:17;;;;;;;;;;;6.20;99.90;;;;;;5031518;28;19909;-88
2021/12/21 07:39:05;;;;;;;;;;;6.30;99.90;;;;;;5063410;28;19925;-89
2021/12/21 07:41:47;;;;;;;;;;;6.40;99.90;;;;;;5053424;28;19925;-87
2021/12/21 07:44:29;;;;;;;;;;;6.30;99.90;;;;;;5066835;28;19935;-90
2021/12/21 07:47:16;;;;;;;;;;;6.30;99.90;;;;;;5055438;28;19921;-87
2021/12/21 07:50:05;;;;;;;;;;;6.30;99.90;;;;;;5055169;28;19920;-87
2021/12/21 07:52:54;;;;;;;;;;;6.20;99.90;;;;;;5030417;28;19943;-89
2021/12/21 07:55:37;;;;;;;;;;;6.30;99.90;;;;;;5043729;22;19924;-88
2021/12/21 07:58:19;;;;;;;;;;;6.50;99.90;;;;;;5032840;28;19929;-88
2021/12/21 08:00:48;;;;;;;;;;;6.30;99.90;;;;;;5048032;28;19925;-88
2021/12/21 08:03:16;;;;;;;;;;;6.40;99.90;;;;;;5066606;28;19925;-87
2021/12/21 08:06:19;;;;;;;;;;;6.20;99.90;;;;;;5053228;28;19935;-93
2021/12/21 08:09:48;;;;;;;;;;;6.30;99.90;;;;;;5044147;28;19913;-91
2021/12/21 09:17:14;;;;;;;;;;;;;;;;;;;;;
2021/12/21 09:33:23;;;;;;;;;;;;;;;;;;;;;
2021/12/21 09:37:10;;;;;;;;;;;;;;;;;;;;;
2021/12/21 09:40:54;;;;;;;;;;;6.60;99.90;;;;;;4865482;29;20050;-84
2021/12/21 09:56:17;;;;;;;;;;;6.80;99.90;;;;;;4927923;29;19931;-84
2021/12/21 09:59:34;;;;;;;;;;;6.60;99.90;;;;;;4933337;29;19931;-84
2021/12/21 10:03:17;;;;;;;;;;;;;;;;;;;;;
2021/12/21 10:15:32;;;;;;;;;;;;;;;;;;;;;
2021/12/21 11:09:09;;;;;;;;;;;;;;;;;;;;;
2021/12/21 11:13:04;;;;;;;;;;;5.40;99.90;;;;;;6174704;23;19920;-84
2021/12/21 11:15:34;;;;;;;;;;;7.50;99.90;;;;;;6127901;23;19931;-84
2021/12/21 11:18:19;;;;;;;;;;;;;;;;;;;;;
2021/12/21 11:26:14;;;;;;;;;;;;;;;;;;;;;
2021/12/21 11:30:26;;;;;;;;;;;;;;;;;;;;;
2021/12/21 11:59:56;;;;;;;;;;;;;;;;;;;;;
2021/12/21 12:03:47;;;;;;;;;;;;;;;;;;;;;
2021/12/21 12:14:42;;;;;;;;;;;6.70;99.90;;;;;;5778649;24;20022;-82
2021/12/21 12:17:47;;;;;;;;;;;;;;;;;;;;;
2021/12/21 12:25:26;;;;;;;;;;;7.80;99.90;;;;;;5776062;24;19920;-83
2021/12/21 12:28:44;;;;;;;;;;;7.60;99.90;;;;;;5803831;24;19923;-84
2021/12/21 12:32:12;;;;;;;;;;;;;;;;;;;;;
2021/12/21 12:35:31;;;;;;;;;;;;;;;;;;;;;
2021/12/21 12:38:15;;;;;;;;;;;7.70;99.90;;;;;;5867273;24;20055;-86
2021/12/21 12:57:04;;;;;;;;;;;7.80;99.90;;;;;;5958726;24;19927;-84
2021/12/21 13:04:43;;;;;;;;;;;9.10;99.90;;;;;;6038808;23;19945;-82
2021/12/21 13:16:26;;;;;;;;;;;6.20;99.90;;;;;;5914712;24;19918;-84
2021/12/21 13:28:35;;;;;;;;;;;9.80;99.90;;;;;;5865749;24;19915;-82
2021/12/21 13:55:33;;;;;;;;;;;7.50;99.90;;;;;;5800209;24;19922;-83
2021/12/21 14:02:34;;;;;;;;;;;6.40;99.90;;;;;;5749055;25;19936;-79
2021/12/21 14:05:05;;;;;;;;;;;6.50;99.90;;;;;;5786181;24;19919;-81
2021/12/21 14:07:35;;;;;;;;;;;5.70;99.90;;;;;;5857788;24;19935;-80
2021/12/21 14:10:10;;;;;;;;;;;7.90;99.90;;;;;;5857624;24;20242;-80
2021/12/21 14:12:39;;;;;;;;;;;7.60;99.90;;;;;;5859594;24;19928;-82
2021/12/21 14:15:08;;;;;;;;;;;7.70;99.90;;;;;;5899443;24;19928;-81
2021/12/21 14:17:37;;;;;;;;;;;7.70;99.90;;;;;;5913741;24;19923;-80
2021/12/21 14:20:06;;;;;;;;;;;7.70;99.90;;;;;;5943195;24;19927;-82
2021/12/21 14:22:37;;;;;;;;;;;8.80;99.90;;;;;;5940980;24;19938;-80
2021/12/21 14:26:29;;;;;;;;;;;7.60;99.90;;;;;;5989207;23;19925;-81
2021/12/21 14:29:04;;;;;;;;;;;7.60;99.90;;;;;;6095757;23;20121;-82
2021/12/21 14:31:42;;;;;;;;;;;7.60;99.90;;;;;;6093539;23;20347;-81
2021/12/21 14:34:17;;;;;;;;;;;7.60;99.90;;;;;;6085271;23;19927;-82
2021/12/21 14:36:52;;;;;;;;;;;7.60;99.90;;;;;;6086883;23;19935;-80
2021/12/21 14:39:26;;;;;;;;;;;6.60;99.90;;;;;;6112729;23;19925;-80
2021/12/21 14:41:58;;;;;;;;;;;7.50;99.90;;;;;;6061903;23;19973;-82
2021/12/21 14:44:27;;;;;;;;;;;7.80;99.90;;;;;;6094119;23;19921;-80
2021/12/21 14:47:00;;;;;;;;;;;7.50;99.90;;;;;;6059790;23;19926;-81
2021/12/21 14:49:41;;;;;;;;;;;7.40;99.90;;;;;;6084641;23;19921;-80
2021/12/21 14:52:27;;;;;;;;;;;7.00;99.90;;;;;;6059052;23;19931;-81
2021/12/21 14:55:14;;;;;;;;;;;7.30;99.90;;;;;;6093736;23;19931;-80
2021/12/21 14:58:03;;;;;;;;;;;7.30;99.90;;;;;;6093760;23;19925;-80
2021/12/21 15:00:36;;;;;;;;;;;6.30;99.90;;;;;;6060122;23;19921;-82
2021/12/21 15:03:08;;;;;;;;;;;7.30;99.90;;;;;;6083912;23;19928;-84
2021/12/21 15:05:40;;;;;;;;;;;7.30;99.90;;;;;;6111221;23;19927;-82
2021/12/21 15:08:10;;;;;;;;;;;7.20;99.90;;;;;;6035535;23;19928;-81
2021/12/21 15:10:39;;;;;;;;;;;7.60;99.90;;;;;;6092708;23;19932;-81
2021/12/21 15:13:09;;;;;;;;;;;7.40;99.90;;;;;;6059320;23;20357;-81
2021/12/21 15:15:38;;;;;;;;;;;7.20;99.90;;;;;;6061181;23;19926;-82
2021/12/21 15:18:10;;;;;;;;;;;7.20;99.90;;;;;;6085862;23;19925;-81
2021/12/21 15:20:39;;;;;;;;;;;7.20;99.90;;;;;;6086417;23;19935;-82
2021/12/21 15:23:07;;;;;;;;;;;7.20;99.90;;;;;;6059003;23;19922;-81
2021/12/21 15:25:35;;;;;;;;;;;6.90;99.90;;;;;;6082839;23;20410;-81
2021/12/21 15:28:08;;;;;;;;;;;7.20;99.90;;;;;;6109419;23;19925;-82
2021/12/21 15:30:41;;;;;;;;;;;7.10;99.90;;;;;;6063957;23;19925;-83
2021/12/21 15:33:09;;;;;;;;;;;7.00;99.90;;;;;;6119652;23;19931;-82
2021/12/21 15:35:40;;;;;;;;;;;7.00;99.90;;;;;;6092652;23;19924;-82
2021/12/21 15:38:11;;;;;;;;;;;7.30;99.90;;;;;;6092392;23;19931;-81
2021/12/21 15:40:40;;;;;;;;;;;7.00;99.90;;;;;;6109103;23;19922;-82
2021/12/21 15:43:09;;;;;;;;;;;7.00;99.90;;;;;;6082154;23;19929;-82
2021/12/21 15:45:37;;;;;;;;;;;7.40;99.90;;;;;;6085441;23;19925;-80
2021/12/21 15:48:05;;;;;;;;;;;6.90;99.90;;;;;;6119128;23;19925;-81
2021/12/21 15:50:33;;;;;;;;;;;7.20;99.90;;;;;;6120970;23;19928;-80
2021/12/21 15:53:02;;;;;;;;;;;6.90;99.90;;;;;;6086162;23;19927;-82
2021/12/21 15:55:30;;;;;;;;;;;6.80;99.90;;;;;;6145903;23;19931;-81
2021/12/21 16:02:10;;;;;;;;;;;6.80;99.90;;;;;;6112502;23;19919;-82
2021/12/21 16:04:39;;;;;;;;;;;6.80;99.90;;;;;;6088335;23;19939;-81
2021/12/21 16:07:07;;;;;;;;;;;6.80;99.90;;;;;;6090420;23;19921;-82
2021/12/21 16:09:37;;;;;;;;;;;6.80;99.90;;;;;;6124730;23;19921;-82
2021/12/21 16:12:35;;;;;;;;;;;6.70;99.90;;;;;;6123007;23;19935;-83
2021/12/21 16:18:48;;;;;;;;;;;7.00;99.90;;;;;;6110532;23;19923;-82
2021/12/21 16:21:19;;;;;;;;;;;6.50;99.90;;;;;;6143596;23;20329;-89
2021/12/21 16:24:09;;;;;;;;;;;6.50;99.90;;;;;;6168398;23;19924;-88
2021/12/21 16:26:41;;;;;;;;;;;5.20;99.90;;;;;;6151459;23;19921;-88
2021/12/21 16:29:16;;;;;;;;;;;6.50;99.90;;;;;;6133675;23;19931;-88
2021/12/21 16:31:47;;;;;;;;;;;6.50;99.90;;;;;;6111160;23;19935;-88
2021/12/21 16:34:20;;;;;;;;;;;6.40;99.90;;;;;;6132363;23;19930;-88
2021/12/21 16:36:51;;;;;;;;;;;6.30;99.90;;;;;;6111146;23;19924;-87
2021/12/21 16:39:21;;;;;;;;;;;6.20;99.90;;;;;;6109169;23;19927;-89
2021/12/21 16:41:51;;;;;;;;;;;6.10;99.90;;;;;;6139856;23;19925;-88
2021/12/21 16:44:48;;;;;;;;;;;5.10;99.90;;;;;;5032908;27;2202369;-87
2021/12/21 16:47:16;;;;;;;;;;;5.80;99.90;;;;;;5082918;28;19939;-89
2021/12/21 16:49:45;;;;;;;;;;;5.30;99.90;;;;;;5099705;28;19938;-86
2021/12/21 16:52:13;;;;;;;;;;;4.90;99.90;;;;;;5097922;28;20002;-85
2021/12/21 16:57:58;;;;;;;;;;;5.60;99.90;;;;;;5113037;28;19932;-82
2021/12/21 17:03:52;;;;;;;;;;;5.40;99.90;;;;;;5090195;28;19924;-82
2021/12/21 17:06:22;;;;;;;;;;;5.30;99.90;;;;;;5074872;28;19928;-82
2021/12/21 17:11:41;;;;;;;;;;;5.10;99.90;;;;;;5088618;28;19929;-82
2021/12/21 17:14:10;;;;;;;;;;;5.30;99.90;;;;;;5113553;28;19934;-81
2021/12/21 17:17:03;;;;;;;;;;;4.70;99.90;;;;;;5108392;28;19928;-80
2021/12/21 17:19:31;;;;;;;;;;;4.90;99.90;;;;;;5060914;28;19932;-82
2021/12/21 17:22:00;;;;;;;;;;;4.90;99.90;;;;;;5069056;28;19939;-81
2021/12/21 17:24:28;;;;;;;;;;;5.20;99.90;;;;;;5074820;28;19994;-81
2021/12/21 17:26:56;;;;;;;;;;;4.80;99.90;;;;;;5108309;28;19935;-84
2021/12/21 17:29:24;;;;;;;;;;;4.80;99.90;;;;;;5091921;28;19924;-84
2021/12/21 17:31:51;;;;;;;;;;;4.80;99.90;;;;;;5091499;28;19928;-82
2021/12/21 17:34:19;;;;;;;;;;;4.90;99.90;;;;;;5065257;28;19924;-82
2021/12/21 17:36:48;;;;;;;;;;;4.60;99.90;;;;;;5095461;28;19932;-81
2021/12/21 17:39:15;;;;;;;;;;;4.50;99.90;;;;;;5110775;28;19928;-83
2021/12/21 17:41:44;;;;;;;;;;;3.20;99.90;;;;;;5109506;28;19928;-82
2021/12/21 17:44:12;;;;;;;;;;;4.40;99.90;;;;;;5106002;28;19925;-83
2021/12/21 17:46:40;;;;;;;;;;;4.40;99.90;;;;;;5115592;28;19934;-81
2021/12/21 17:49:08;;;;;;;;;;;4.40;99.90;;;;;;5090200;28;19932;-83
2021/12/21 17:51:35;;;;;;;;;;;4.90;99.90;;;;;;5087351;28;19924;-83
2021/12/21 17:54:03;;;;;;;;;;;4.20;99.90;;;;;;5072567;28;19932;-83
2021/12/21 17:56:31;;;;;;;;;;;4.20;99.90;;;;;;5094618;28;19931;-84
2021/12/21 17:58:59;;;;;;;;;;;2.50;99.90;;;;;;5084137;28;19924;-84
2021/12/21 18:01:28;;;;;;;;;;;4.00;99.90;;;;;;5090469;28;19928;-81
2021/12/21 18:03:56;;;;;;;;;;;3.90;99.90;;;;;;5053402;28;19924;-81
2021/12/21 18:06:24;;;;;;;;;;;4.10;99.90;;;;;;5057548;28;19925;-82
2021/12/21 18:12:11;;;;;;;;;;;3.90;99.90;;;;;;5095348;28;19924;-81
2021/12/21 18:14:39;;;;;;;;;;;3.80;99.90;;;;;;5077516;28;19935;-80
2021/12/21 18:17:08;;;;;;;;;;;4.50;99.90;;;;;;5062767;28;19957;-82
2021/12/21 18:19:36;;;;;;;;;;;3.60;99.90;;;;;;5058250;28;19928;-81
2021/12/21 18:22:10;;;;;;;;;;;4.00;99.90;;;;;;5069107;28;19924;-83
2021/12/21 18:32:01;;;;;;;;;;;3.40;99.90;;;;;;5087636;28;19927;-81
2021/12/21 18:34:35;;;;;;;;;;;3.70;99.90;;;;;;5071712;28;19929;-83
2021/12/21 18:37:03;;;;;;;;;;;3.20;99.90;;;;;;5065897;28;19947;-81
2021/12/21 18:39:32;;;;;;;;;;;3.20;99.90;;;;;;5078493;28;19924;-80
2021/12/21 18:42:01;;;;;;;;;;;3.40;99.90;;;;;;5072806;28;19928;-82
2021/12/21 18:44:32;;;;;;;;;;;3.10;99.90;;;;;;5069718;28;19933;-82
2021/12/21 18:47:04;;;;;;;;;;;3.00;99.90;;;;;;5070282;28;19928;-82
2021/12/21 18:49:37;;;;;;;;;;;3.10;99.90;;;;;;5071323;28;19939;-81
2021/12/21 18:52:07;;;;;;;;;;;3.00;99.90;;;;;;5070401;28;19931;-83
2021/12/21 18:54:39;;;;;;;;;;;2.90;99.90;;;;;;5070138;28;19944;-83
2021/12/21 18:57:10;;;;;;;;;;;2.80;99.90;;;;;;5069613;28;19933;-82
2021/12/21 18:59:38;;;;;;;;;;;2.80;99.90;;;;;;5053963;28;19936;-83
2021/12/21 19:02:06;;;;;;;;;;;2.80;99.90;;;;;;5070881;28;19932;-83
2021/12/21 19:04:34;;;;;;;;;;;2.80;99.90;;;;;;5055815;28;20286;-82
2021/12/21 19:07:02;;;;;;;;;;;2.70;99.90;;;;;;5052663;28;19925;-84
2021/12/21 19:09:29;;;;;;;;;;;2.60;99.90;;;;;;5057065;28;19929;-84
2021/12/21 19:12:01;;;;;;;;;;;2.60;99.90;;;;;;5048216;28;19928;-81
2021/12/21 19:14:29;;;;;;;;;;;2.50;99.90;;;;;;5072500;28;19957;-81
2021/12/21 19:16:57;;;;;;;;;;;2.50;99.90;;;;;;5060712;28;19931;-83
2021/12/21 19:19:24;;;;;;;;;;;2.40;99.90;;;;;;5077275;28;19933;-82
2021/12/21 19:21:52;;;;;;;;;;;3.20;99.90;;;;;;5076258;28;19924;-84
2021/12/21 19:24:20;;;;;;;;;;;2.30;99.90;;;;;;5064636;28;19932;-83
2021/12/21 19:26:48;;;;;;;;;;;2.30;99.90;;;;;;5053517;28;19929;-80
2021/12/21 19:29:17;;;;;;;;;;;2.20;99.90;;;;;;5060171;28;19935;-85
2021/12/21 19:31:45;;;;;;;;;;;2.10;99.90;;;;;;5078232;28;19928;-80
2021/12/21 19:34:13;;;;;;;;;;;2.10;99.90;;;;;;5077674;28;19931;-82
2021/12/21 19:36:41;;;;;;;;;;;2.00;99.90;;;;;;5073782;28;19932;-81
2021/12/21 19:39:08;;;;;;;;;;;1.20;99.90;;;;;;5078453;28;20468;-83
2021/12/21 19:41:36;;;;;;;;;;;1.90;99.90;;;;;;5058546;28;20024;-81
2021/12/21 19:44:04;;;;;;;;;;;1.90;99.90;;;;;;5062738;28;19932;-82
2021/12/21 19:46:33;;;;;;;;;;;1.90;99.90;;;;;;5076007;28;19925;-82
2021/12/21 19:49:00;;;;;;;;;;;2.20;99.90;;;;;;5052479;28;19932;-82
2021/12/21 19:51:31;;;;;;;;;;;1.80;99.90;;;;;;5076982;28;19986;-82
2021/12/21 19:54:02;;;;;;;;;;;3.20;99.90;;;;;;5058040;28;19929;-83
2021/12/21 19:56:31;;;;;;;;;;;1.80;99.90;;;;;;5058289;28;19935;-81
2021/12/21 19:58:59;;;;;;;;;;;1.70;99.90;;;;;;5074195;28;19942;-83
2021/12/21 20:01:32;;;;;;;;;;;1.80;99.90;;;;;;5082355;28;19936;-82
2021/12/21 20:04:08;;;;;;;;;;;1.80;99.90;;;;;;5074471;28;19925;-82
2021/12/21 20:06:38;;;;;;;;;;;1.90;99.90;;;;;;5073264;28;19932;-82
2021/12/21 20:09:06;;;;;;;;;;;1.60;99.90;;;;;;5078671;28;19944;-81
2021/12/21 20:14:27;;;;;;;;;;;1.60;99.90;;;;;;5081011;28;19932;-85
2021/12/21 20:16:56;;;;;;;;;;;0.70;99.90;;;;;;5070594;28;19937;-81
2021/12/21 20:19:26;;;;;;;;;;;1.60;99.90;;;;;;5071812;28;20375;-80
2021/12/21 20:21:54;;;;;;;;;;;1.70;99.90;;;;;;5080420;28;19929;-79
2021/12/21 20:24:22;;;;;;;;;;;1.50;99.90;;;;;;5052797;28;19924;-80
2021/12/21 20:26:50;;;;;;;;;;;1.50;99.90;;;;;;5025199;28;19936;-79
2021/12/21 20:29:18;;;;;;;;;;;1.50;99.90;;;;;;5055058;28;19939;-82
2021/12/21 20:31:46;;;;;;;;;;;1.60;99.90;;;;;;5070581;28;19943;-82
2021/12/21 20:34:15;;;;;;;;;;;1.40;99.90;;;;;;5067802;28;19924;-82
2021/12/21 20:36:43;;;;;;;;;;;1.70;99.90;;;;;;5039271;28;19929;-81
2021/12/21 20:39:11;;;;;;;;;;;1.50;99.90;;;;;;5052825;28;19928;-82
2021/12/21 20:41:39;;;;;;;;;;;1.40;99.90;;;;;;5058380;28;19929;-81
2021/12/21 20:44:10;;;;;;;;;;;1.40;99.90;;;;;;5083763;28;19932;-81
2021/12/21 20:46:38;;;;;;;;;;;1.40;99.90;;;;;;5059906;28;19933;-83
2021/12/21 20:49:06;;;;;;;;;;;1.50;99.90;;;;;;5073387;28;19932;-83
2021/12/21 20:51:34;;;;;;;;;;;0.10;99.90;;;;;;5060696;28;19933;-84
2021/12/21 20:54:03;;;;;;;;;;;1.30;99.90;;;;;;5076386;28;19935;-81
2021/12/21 20:56:33;;;;;;;;;;;1.20;99.90;;;;;;5069500;28;19928;-81
2021/12/21 20:59:01;;;;;;;;;;;1.50;99.90;;;;;;5090022;28;19913;-82
2021/12/21 21:01:29;;;;;;;;;;;1.20;99.90;;;;;;5053747;28;19935;-82
2021/12/21 21:03:57;;;;;;;;;;;1.10;99.90;;;;;;5067275;28;19934;-82
2021/12/21 21:06:26;;;;;;;;;;;1.10;99.90;;;;;;5064250;28;19947;-84
2021/12/21 21:08:59;;;;;;;;;;;1.50;99.90;;;;;;5074436;28;19925;-82
2021/12/21 21:11:30;;;;;;;;;;;1.00;99.90;;;;;;5070746;28;19939;-84
2021/12/21 21:14:01;;;;;;;;;;;1.00;99.90;;;;;;5069560;28;19924;-81
2021/12/21 21:16:29;;;;;;;;;;;1.00;99.90;;;;;;5096497;28;19936;-81
2021/12/21 21:18:57;;;;;;;;;;;1.20;99.90;;;;;;5070543;28;19935;-80
2021/12/21 21:21:26;;;;;;;;;;;0.90;99.90;;;;;;5071224;28;19936;-81
2021/12/21 21:23:55;;;;;;;;;;;0.90;99.90;;;;;;5091981;28;19924;-79
2021/12/21 21:26:23;;;;;;;;;;;0.90;99.90;;;;;;5087470;28;19935;-81
2021/12/21 21:28:52;;;;;;;;;;;0.90;99.90;;;;;;5087309;28;19933;-84
2021/12/21 21:31:36;;;;;;;;;;;1.10;99.90;;;;;;5076448;28;19939;-80
2021/12/21 21:34:05;;;;;;;;;;;0.80;99.90;;;;;;5078879;28;19938;-79
2021/12/21 21:36:33;;;;;;;;;;;0.70;99.90;;;;;;5054703;28;19981;-80
2021/12/21 21:39:03;;;;;;;;;;;0.70;99.90;;;;;;5077792;28;19928;-78